createdAt,value
2024-03-03T00:01:17.719Z,31.45
2024-03-03T00:03:44.479Z,30.55
2024-03-03T00:06:11.195Z,28.77
2024-03-03T00:08:37.825Z,48.90
2024-03-03T00:11:05.963Z,43.35
2024-03-03T00:13:33.371Z,41.78
2024-03-03T00:16:00.577Z,31.08
2024-03-03T00:18:27.412Z,38.17
2024-03-03T00:20:54.059Z,33.75
2024-03-03T00:23:20.750Z,30.85
2024-03-03T00:25:47.400Z,37.13
2024-03-03T00:28:14.546Z,37.00
2024-03-03T00:30:41.216Z,29.23
2024-03-03T00:33:08.037Z,33.85
2024-03-03T00:35:34.721Z,25.75
2024-03-03T00:38:01.454Z,25.17
2024-03-03T00:40:28.147Z,33.97
2024-03-03T00:42:55.010Z,23.63
2024-03-03T00:45:21.723Z,36.22
2024-03-03T00:47:49.957Z,33.78
2024-03-03T00:50:16.901Z,36.00
2024-03-03T00:52:43.587Z,34.53
2024-03-03T00:55:10.921Z,37.03
2024-03-03T00:57:37.899Z,34.83
2024-03-03T01:00:05.756Z,43.65
2024-03-03T01:02:32.772Z,41.40
2024-03-03T01:04:59.636Z,43.30
2024-03-03T01:07:26.321Z,40.58
2024-03-03T01:09:53.784Z,38.83
2024-03-03T01:12:20.510Z,33.28
2024-03-03T01:14:47.165Z,39.67
2024-03-03T01:17:13.887Z,30.85
2024-03-03T01:19:40.798Z,41.78
2024-03-03T01:22:07.698Z,35.72
2024-03-03T01:24:34.431Z,43.47
2024-03-03T01:27:02.095Z,50.10
2024-03-03T01:29:28.821Z,33.42
2024-03-03T01:31:55.608Z,32.95
2024-03-03T01:34:23.930Z,28.15
2024-03-03T01:36:50.683Z,42.42
2024-03-03T01:39:17.407Z,39.08
2024-03-03T01:41:46.871Z,34.72
2024-03-03T01:44:14.140Z,37.15
2024-03-03T01:46:41.067Z,32.75
2024-03-03T01:49:09.093Z,39.05
2024-03-03T01:51:37.120Z,36.28
2024-03-03T01:54:05.334Z,29.45
2024-03-03T01:56:34.187Z,31.50
2024-03-03T01:59:03.616Z,37.72
2024-03-03T02:01:33.094Z,35.53
2024-03-03T02:03:59.965Z,35.45
2024-03-03T02:06:31.469Z,39.13
2024-03-03T02:08:59.575Z,35.88
2024-03-03T02:11:26.349Z,32.80
2024-03-03T02:13:53.191Z,37.65
2024-03-03T02:16:19.904Z,40.28
2024-03-03T02:18:46.733Z,32.30
2024-03-03T02:21:13.638Z,31.27
2024-03-03T02:23:40.578Z,31.30
2024-03-03T02:26:07.216Z,26.27
2024-03-03T02:28:33.917Z,32.80
2024-03-03T02:31:00.583Z,22.40
2024-03-03T02:33:27.310Z,33.65
2024-03-03T02:35:53.942Z,27.30
2024-03-03T02:38:20.571Z,20.05
2024-03-03T02:40:47.531Z,24.52
2024-03-03T02:43:14.188Z,17.33
2024-03-03T02:45:41.597Z,18.75
2024-03-03T02:48:08.768Z,25.85
2024-03-03T02:50:35.509Z,25.77
2024-03-03T02:53:02.199Z,24.60
2024-03-03T02:55:28.885Z,22.10
2024-03-03T02:57:55.575Z,15.05
2024-03-03T03:00:22.236Z,23.38
2024-03-03T03:02:49.200Z,17.50
2024-03-03T03:05:15.873Z,15.02
2024-03-03T03:07:42.584Z,19.67
2024-03-03T03:10:09.571Z,11.85
2024-03-03T03:12:36.268Z,17.13
2024-03-03T03:15:03.120Z,13.75
2024-03-03T03:17:29.829Z,14.27
2024-03-03T03:19:56.555Z,24.95
2024-03-03T03:22:23.257Z,24.05
2024-03-03T03:24:50.033Z,13.40
2024-03-03T03:27:16.777Z,13.70
2024-03-03T03:29:44.581Z,14.02
2024-03-03T03:32:11.197Z,12.90
2024-03-03T03:34:37.945Z,14.15
2024-03-03T03:37:05.308Z,18.23
2024-03-03T03:39:31.992Z,9.77
2024-03-03T03:41:58.707Z,12.82
2024-03-03T03:44:25.420Z,17.33
2024-03-03T03:46:52.035Z,12.98
2024-03-03T03:49:18.803Z,9.25
2024-03-03T03:51:45.634Z,12.63
2024-03-03T03:54:12.374Z,11.65
2024-03-03T03:56:40.157Z,10.43
2024-03-03T03:59:07.185Z,11.13
2024-03-03T04:01:33.932Z,10.50
2024-03-03T04:04:01.012Z,13.13
2024-03-03T04:06:29.494Z,10.57
2024-03-03T04:08:56.142Z,14.65
2024-03-03T04:11:23.457Z,18.63
2024-03-03T04:13:51.233Z,20.58
2024-03-03T04:16:22.219Z,22.05
2024-03-03T04:18:49.087Z,15.27
2024-03-03T04:21:15.806Z,11.55
2024-03-03T04:23:42.531Z,12.32
2024-03-03T04:26:09.447Z,14.75
2024-03-03T04:28:37.958Z,16.42
2024-03-03T04:31:09.323Z,10.85
2024-03-03T04:33:37.530Z,12.07
2024-03-03T04:36:12.671Z,10.45
2024-03-03T04:38:42.403Z,16.70
2024-03-03T04:41:19.620Z,13.27
2024-03-03T04:43:47.253Z,19.63
2024-03-03T04:46:14.447Z,13.88
2024-03-03T04:48:41.311Z,16.48
2024-03-03T04:51:08.327Z,14.40
2024-03-03T04:53:35.039Z,9.43
2024-03-03T04:56:01.745Z,11.20
2024-03-03T04:58:28.915Z,11.10
2024-03-03T05:00:55.701Z,12.18
2024-03-03T05:03:24.437Z,10.73
2024-03-03T05:05:51.089Z,14.45
2024-03-03T05:08:17.781Z,10.77
2024-03-03T05:10:44.422Z,11.05
2024-03-03T05:13:11.276Z,12.35
2024-03-03T05:15:37.995Z,15.02
2024-03-03T05:18:05.001Z,15.38
2024-03-03T05:20:31.739Z,13.80
2024-03-03T05:22:58.348Z,9.32
2024-03-03T05:25:25.052Z,7.38
2024-03-03T05:27:54.933Z,12.25
2024-03-03T05:30:21.779Z,14.75
2024-03-03T05:32:48.452Z,10.18
2024-03-03T05:35:15.235Z,15.70
2024-03-03T05:37:41.862Z,17.35
2024-03-03T05:40:10.140Z,11.65
2024-03-03T05:42:36.855Z,9.18
2024-03-03T05:45:03.669Z,12.95
2024-03-03T05:47:30.342Z,10.60
2024-03-03T05:49:56.995Z,10.13
2024-03-03T05:52:23.657Z,10.20
2024-03-03T05:54:50.312Z,8.95
2024-03-03T05:57:16.967Z,6.05
2024-03-03T05:59:43.611Z,7.47
2024-03-03T06:02:10.298Z,7.18
2024-03-03T06:04:38.046Z,7.40
2024-03-03T06:07:05.636Z,18.50
2024-03-03T06:09:33.142Z,5.32
2024-03-03T06:12:01.034Z,9.90
2024-03-03T06:14:27.779Z,10.98
2024-03-03T06:16:54.412Z,11.07
2024-03-03T06:19:21.308Z,15.38
2024-03-03T06:21:53.938Z,13.75
2024-03-03T06:24:21.115Z,8.60
2024-03-03T06:26:48.047Z,10.85
2024-03-03T06:29:15.654Z,13.95
2024-03-03T06:31:48.527Z,8.82
2024-03-03T06:34:15.335Z,5.90
2024-03-03T06:36:42.181Z,10.50
2024-03-03T06:39:13.675Z,8.73
2024-03-03T06:41:40.607Z,8.77
2024-03-03T06:44:07.307Z,12.85
2024-03-03T06:46:34.289Z,12.75
2024-03-03T06:49:01.013Z,8.35
2024-03-03T06:51:27.735Z,7.75
2024-03-03T06:53:54.378Z,7.88
2024-03-03T06:56:21.042Z,11.57
2024-03-03T06:58:47.844Z,12.05
2024-03-03T07:01:15.148Z,8.05
2024-03-03T07:04:01.075Z,8.10
2024-03-03T07:06:27.793Z,4.18
2024-03-03T07:08:54.498Z,4.25
2024-03-03T07:11:21.160Z,4.18
2024-03-03T07:13:47.843Z,4.20
2024-03-03T07:16:14.527Z,3.92
2024-03-03T07:18:41.254Z,4.60
2024-03-03T07:21:07.972Z,2.50
2024-03-03T07:23:34.578Z,3.13
2024-03-03T07:26:01.288Z,2.63
2024-03-03T07:28:28.068Z,4.03
2024-03-03T07:30:54.844Z,3.35
2024-03-03T07:33:21.496Z,2.30
2024-03-03T07:35:48.131Z,2.75
2024-03-03T07:38:15.875Z,2.13
2024-03-03T07:40:45.609Z,3.70
2024-03-03T07:43:16.080Z,5.47
2024-03-03T07:45:42.854Z,2.95
2024-03-03T07:48:09.641Z,3.67
2024-03-03T07:50:36.361Z,2.92
2024-03-03T07:53:03.003Z,2.83
2024-03-03T07:55:30.763Z,3.55
2024-03-03T07:57:58.626Z,2.83
2024-03-03T08:00:27.953Z,5.00
2024-03-03T08:02:54.723Z,2.53
2024-03-03T08:05:21.378Z,3.83
2024-03-03T08:07:48.010Z,2.45
2024-03-03T08:10:14.747Z,4.25
2024-03-03T08:12:41.533Z,2.17
2024-03-03T08:15:08.481Z,1.80
2024-03-03T08:17:35.193Z,0.77
2024-03-03T08:20:01.868Z,1.20
2024-03-03T08:22:28.581Z,1.88
2024-03-03T08:24:55.610Z,1.10
2024-03-03T08:27:22.916Z,1.52
2024-03-03T08:29:49.634Z,2.40
2024-03-03T08:32:16.324Z,1.85
2024-03-03T08:34:42.996Z,0.98
2024-03-03T08:37:09.666Z,2.50
2024-03-03T08:39:36.323Z,1.75
2024-03-03T08:42:03.022Z,1.30
2024-03-03T08:44:29.713Z,1.40
2024-03-03T08:46:56.470Z,1.08
2024-03-03T08:49:23.315Z,2.55
2024-03-03T08:51:50.109Z,0.75
2024-03-03T08:54:16.709Z,0.88
2024-03-03T08:56:43.622Z,2.45
2024-03-03T08:59:10.272Z,1.70
2024-03-03T09:01:40.082Z,1.23
2024-03-03T09:04:07.609Z,1.83
2024-03-03T09:06:35.025Z,1.55
2024-03-03T09:09:01.668Z,1.88
2024-03-03T09:11:28.856Z,1.33
2024-03-03T09:13:55.584Z,1.73
2024-03-03T09:16:23.109Z,0.98
2024-03-03T09:18:50.959Z,0.90
2024-03-03T09:21:17.770Z,0.60
2024-03-03T09:23:44.410Z,1.83
2024-03-03T09:26:11.125Z,0.75
2024-03-03T09:28:38.014Z,0.82
2024-03-03T09:31:05.511Z,0.88
2024-03-03T09:33:32.387Z,0.95
2024-03-03T09:35:59.099Z,3.33
2024-03-03T09:38:25.791Z,1.58
2024-03-03T09:40:52.672Z,1.20
2024-03-03T09:43:23.059Z,0.45
2024-03-03T09:45:51.667Z,1.90
2024-03-03T09:48:21.882Z,3.53
2024-03-03T09:50:51.652Z,2.03
2024-03-03T09:53:19.305Z,0.93
2024-03-03T09:55:46.252Z,2.80
2024-03-03T09:58:13.591Z,1.20
2024-03-03T10:00:41.471Z,1.10
2024-03-03T10:03:08.653Z,1.70
2024-03-03T10:05:38.707Z,2.00
2024-03-03T10:08:05.857Z,1.25
2024-03-03T10:10:37.081Z,2.97
2024-03-03T10:13:06.303Z,0.98
2024-03-03T10:15:34.497Z,1.52
2024-03-03T10:18:04.369Z,2.47
2024-03-03T10:20:31.304Z,1.10
2024-03-03T10:22:57.951Z,0.88
2024-03-03T10:25:26.177Z,1.33
2024-03-03T10:27:53.571Z,0.82
2024-03-03T10:30:23.328Z,0.77
2024-03-03T10:32:50.524Z,0.90
2024-03-03T10:35:20.107Z,0.98
2024-03-03T10:37:54.506Z,0.50
2024-03-03T10:40:22.987Z,1.60
2024-03-03T10:42:49.964Z,0.77
2024-03-03T10:45:16.843Z,1.67
2024-03-03T10:47:43.862Z,1.30
2024-03-03T10:50:21.220Z,2.45
2024-03-03T10:52:50.378Z,3.25
2024-03-03T10:55:17.791Z,1.95
2024-03-03T10:57:45.596Z,0.98
2024-03-03T11:00:26.838Z,0.77
2024-03-03T11:02:55.954Z,1.45
2024-03-03T11:05:24.442Z,1.13
2024-03-03T11:07:51.764Z,0.77
2024-03-03T11:10:18.900Z,2.00
2024-03-03T11:12:51.141Z,1.45
2024-03-03T11:15:22.833Z,0.85
2024-03-03T11:17:56.910Z,1.00
2024-03-03T11:20:25.370Z,0.50
2024-03-03T11:23:10.901Z,1.00
2024-03-03T11:26:00.907Z,1.17
2024-03-03T11:28:29.938Z,1.40
2024-03-03T11:30:56.791Z,1.05
2024-03-03T11:33:25.236Z,0.93
2024-03-03T11:35:52.553Z,0.63
2024-03-03T11:38:19.284Z,4.10
2024-03-03T11:40:46.030Z,0.88
2024-03-03T11:43:12.866Z,3.17
2024-03-03T11:45:46.644Z,0.60
2024-03-03T11:48:14.632Z,1.15
2024-03-03T11:50:41.486Z,1.52
2024-03-03T11:53:08.288Z,1.63
2024-03-03T11:55:39.862Z,0.98
2024-03-03T11:58:07.985Z,0.50
2024-03-03T12:00:36.543Z,0.40
2024-03-03T12:03:03.739Z,1.00
2024-03-03T12:05:30.636Z,1.77
2024-03-03T12:07:57.782Z,1.50
2024-03-03T12:10:26.145Z,0.73
2024-03-03T12:13:02.382Z,1.35
2024-03-03T12:15:30.537Z,0.68
2024-03-03T12:17:59.485Z,1.00
2024-03-03T12:20:27.804Z,0.43
2024-03-03T12:22:55.413Z,0.60
2024-03-03T12:25:24.712Z,0.95
2024-03-03T12:27:56.548Z,1.23
2024-03-03T12:30:32.307Z,2.80
2024-03-03T12:32:59.729Z,0.45
2024-03-03T12:35:26.559Z,0.90
2024-03-03T12:37:54.717Z,0.20
2024-03-03T12:40:21.808Z,0.90
2024-03-03T12:42:52.836Z,0.32
2024-03-03T12:45:20.039Z,0.30
2024-03-03T12:47:47.059Z,0.82
2024-03-03T12:50:16.700Z,0.88
2024-03-03T12:52:46.928Z,0.43
2024-03-03T12:55:15.277Z,1.42
2024-03-03T12:57:43.253Z,1.65
2024-03-03T13:00:15.531Z,1.42
2024-03-03T13:02:43.798Z,1.13
2024-03-03T13:05:16.513Z,1.30
2024-03-03T13:07:51.333Z,2.33
2024-03-03T13:10:23.908Z,1.17
2024-03-03T13:12:56.211Z,0.47
2024-03-03T13:15:25.039Z,1.17
2024-03-03T13:18:08.051Z,1.15
2024-03-03T13:20:35.496Z,0.63
2024-03-03T13:23:17.526Z,0.77
2024-03-03T13:25:45.056Z,0.82
2024-03-03T13:28:16.455Z,0.40
2024-03-03T13:30:57.227Z,3.08
2024-03-03T13:33:24.914Z,3.10
2024-03-03T13:35:52.292Z,0.38
2024-03-03T13:38:19.041Z,0.95
2024-03-03T13:40:46.235Z,0.68
2024-03-03T13:43:13.057Z,0.40
2024-03-03T13:45:40.093Z,0.57
2024-03-03T13:48:15.784Z,0.40
2024-03-03T13:50:43.491Z,0.38
2024-03-03T13:53:11.202Z,0.43
2024-03-03T13:55:38.165Z,0.45
2024-03-03T13:58:05.681Z,0.57
2024-03-03T14:00:33.628Z,0.43
2024-03-03T14:03:04.093Z,0.30
2024-03-03T14:05:32.953Z,1.50
2024-03-03T14:07:59.706Z,5.60
2024-03-03T14:10:27.685Z,0.40
2024-03-03T14:12:55.038Z,0.30
2024-03-03T14:15:22.341Z,0.63
2024-03-03T14:17:50.273Z,0.85
2024-03-03T14:20:17.939Z,0.65
2024-03-03T14:22:51.032Z,0.68
2024-03-03T14:25:18.358Z,0.38
2024-03-03T14:27:46.499Z,0.25
2024-03-03T14:30:14.198Z,0.75
2024-03-03T14:32:41.177Z,0.95
2024-03-03T14:35:08.654Z,1.80
2024-03-03T14:37:36.600Z,0.47
2024-03-03T14:40:04.561Z,0.47
2024-03-03T14:42:31.316Z,0.73
2024-03-03T14:44:57.983Z,0.88
2024-03-03T14:47:25.209Z,0.77
2024-03-03T14:49:52.399Z,4.85
2024-03-03T14:52:19.510Z,2.17
2024-03-03T14:54:48.080Z,6.88
2024-03-03T14:57:16.298Z,0.52
2024-03-03T14:59:43.666Z,0.32
2024-03-03T15:02:11.112Z,2.75
2024-03-03T15:04:38.576Z,0.52
2024-03-03T15:07:06.211Z,0.65
2024-03-03T15:09:33.142Z,1.58
2024-03-03T15:11:59.805Z,2.22
2024-03-03T15:14:26.449Z,0.20
2024-03-03T15:16:53.293Z,0.20
2024-03-03T15:19:20.047Z,0.93
2024-03-03T15:21:46.875Z,1.05
2024-03-03T15:24:13.613Z,2.33
2024-03-03T15:26:41.122Z,2.92
2024-03-03T15:29:08.035Z,0.80
2024-03-03T15:31:34.932Z,1.45
2024-03-03T15:34:03.090Z,0.68
2024-03-03T15:36:29.940Z,0.47
2024-03-03T15:38:57.153Z,1.80
2024-03-03T15:41:24.297Z,1.52
2024-03-03T15:43:51.315Z,0.63
2024-03-03T15:46:18.612Z,0.75
2024-03-03T15:48:45.356Z,1.33
2024-03-03T15:51:12.061Z,0.63
2024-03-03T15:53:38.721Z,0.20
2024-03-03T15:56:05.814Z,0.65
2024-03-03T15:58:34.158Z,0.40
2024-03-03T16:01:01.148Z,0.40
2024-03-03T16:03:28.033Z,3.55
2024-03-03T16:05:55.018Z,1.23
2024-03-03T16:08:21.830Z,0.60
2024-03-03T16:10:52.470Z,0.43
2024-03-03T16:13:20.613Z,0.32
2024-03-03T16:15:48.529Z,0.25
2024-03-03T16:18:15.291Z,0.70
2024-03-03T16:20:42.882Z,1.38
2024-03-03T16:23:09.527Z,1.05
2024-03-03T16:25:37.999Z,0.88
2024-03-03T16:28:05.717Z,0.50
2024-03-03T16:30:32.552Z,4.57
2024-03-03T16:33:00.308Z,0.40
2024-03-03T16:35:27.915Z,0.63
2024-03-03T16:37:57.478Z,1.38
2024-03-03T16:40:27.228Z,0.80
2024-03-03T16:43:00.444Z,0.40
2024-03-03T16:45:27.357Z,2.10
2024-03-03T16:47:57.800Z,0.82
2024-03-03T16:50:30.756Z,5.95
2024-03-03T16:52:57.591Z,0.95
2024-03-03T16:55:25.844Z,1.05
2024-03-03T16:57:58.078Z,4.60
2024-03-03T17:00:25.222Z,2.60
2024-03-03T17:02:52.093Z,1.02
2024-03-03T17:05:19.929Z,2.33
2024-03-03T17:07:50.265Z,0.85
2024-03-03T17:10:17.247Z,1.85
2024-03-03T17:12:44.039Z,0.68
2024-03-03T17:15:12.300Z,0.85
2024-03-03T17:17:40.777Z,0.85
2024-03-03T17:20:11.178Z,2.17
2024-03-03T17:22:38.311Z,0.52
2024-03-03T17:25:06.258Z,0.90
2024-03-03T17:27:33.228Z,0.93
2024-03-03T17:29:59.858Z,2.97
2024-03-03T17:32:26.587Z,0.70
2024-03-03T17:34:53.410Z,0.45
2024-03-03T17:37:20.108Z,3.38
2024-03-03T17:39:47.347Z,0.98
2024-03-03T17:42:14.070Z,1.17
2024-03-03T17:44:40.840Z,2.47
2024-03-03T17:47:07.648Z,0.40
2024-03-03T17:49:35.161Z,0.60
2024-03-03T17:52:01.989Z,0.82
2024-03-03T17:54:28.812Z,0.98
2024-03-03T17:56:55.467Z,1.13
2024-03-03T17:59:22.120Z,1.25
2024-03-03T18:01:49.264Z,1.63
2024-03-03T18:04:16.168Z,3.83
2024-03-03T18:06:42.808Z,1.25
2024-03-03T18:09:10.591Z,1.33
2024-03-03T18:11:37.271Z,0.73
2024-03-03T18:14:04.873Z,1.17
2024-03-03T18:16:31.755Z,0.73
2024-03-03T18:18:58.514Z,5.25
2024-03-03T18:21:25.225Z,0.75
2024-03-03T18:23:51.933Z,1.15
2024-03-03T18:26:18.606Z,2.25
2024-03-03T18:28:45.237Z,0.60
2024-03-03T18:31:12.527Z,2.25
2024-03-03T18:33:39.357Z,0.63
2024-03-03T18:36:06.409Z,2.03
2024-03-03T18:38:33.410Z,2.00
2024-03-03T18:41:00.530Z,1.60
2024-03-03T18:43:29.788Z,1.42
2024-03-03T18:45:56.657Z,1.05
2024-03-03T18:48:23.427Z,1.15
2024-03-03T18:50:50.064Z,2.22
2024-03-03T18:53:19.430Z,4.20
2024-03-03T18:55:46.156Z,1.10
2024-03-03T18:58:13.246Z,1.70
2024-03-03T19:00:41.637Z,2.78
2024-03-03T19:03:08.844Z,0.60
2024-03-03T19:05:36.596Z,0.82
2024-03-03T19:08:06.679Z,0.43
2024-03-03T19:10:33.535Z,0.40
2024-03-03T19:13:01.959Z,4.60
2024-03-03T19:15:28.739Z,0.50
2024-03-03T19:17:55.568Z,0.30
2024-03-03T19:20:22.319Z,1.17
2024-03-03T19:22:50.092Z,1.98
2024-03-03T19:25:16.945Z,1.42
2024-03-03T19:27:43.590Z,1.13
2024-03-03T19:30:10.814Z,1.02
2024-03-03T19:32:37.738Z,3.72
2024-03-03T19:35:05.430Z,1.45
2024-03-03T19:37:35.098Z,0.55
2024-03-03T19:40:05.550Z,3.30
2024-03-03T19:42:32.368Z,4.68
2024-03-03T19:44:59.134Z,7.72
2024-03-03T19:47:26.089Z,7.90
2024-03-03T19:49:53.570Z,5.70
2024-03-03T19:52:20.489Z,2.45
2024-03-03T19:54:47.345Z,8.05
2024-03-03T19:57:14.906Z,6.68
2024-03-03T19:59:42.170Z,5.43
2024-03-03T20:02:08.964Z,4.97
2024-03-03T20:04:35.790Z,2.47
2024-03-03T20:07:06.240Z,2.03
2024-03-03T20:09:34.601Z,2.30
2024-03-03T20:12:01.295Z,1.30
2024-03-03T20:14:27.986Z,0.88
2024-03-03T20:16:54.672Z,4.35
2024-03-03T20:19:22.260Z,3.80
2024-03-03T20:21:49.092Z,4.93
2024-03-03T20:24:17.169Z,3.67
2024-03-03T20:26:44.131Z,4.05
2024-03-03T20:29:13.650Z,2.30
2024-03-03T20:31:41.053Z,1.75
2024-03-03T20:34:08.906Z,3.03
2024-03-03T20:36:35.709Z,2.60
2024-03-03T20:39:02.434Z,3.42
2024-03-03T20:41:29.138Z,4.20
2024-03-03T20:43:56.609Z,2.33
2024-03-03T20:46:23.344Z,2.97
2024-03-03T20:48:50.021Z,2.42
2024-03-03T20:51:20.433Z,1.98
2024-03-03T20:53:47.328Z,1.73
2024-03-03T20:56:14.034Z,1.90
2024-03-03T20:58:40.841Z,1.13
2024-03-03T21:01:09.099Z,2.47
2024-03-03T21:03:35.937Z,2.58
2024-03-03T21:06:07.781Z,1.70
2024-03-03T21:08:35.028Z,1.70
2024-03-03T21:11:01.749Z,3.78
2024-03-03T21:13:28.512Z,3.75
2024-03-03T21:15:55.237Z,2.05
2024-03-03T21:18:21.936Z,1.05
2024-03-03T21:20:49.432Z,1.75
2024-03-03T21:23:16.114Z,1.25
2024-03-03T21:25:42.858Z,1.27
2024-03-03T21:28:09.626Z,3.40
2024-03-03T21:30:36.505Z,2.40
2024-03-03T21:33:04.109Z,1.77
2024-03-03T21:35:30.830Z,2.20
2024-03-03T21:37:57.526Z,0.93
2024-03-03T21:40:26.166Z,0.63
2024-03-03T21:42:53.213Z,1.65
2024-03-03T21:45:20.270Z,0.63
2024-03-03T21:47:47.355Z,1.55
2024-03-03T21:50:14.055Z,1.42
2024-03-03T21:52:40.915Z,2.63
2024-03-03T21:55:08.390Z,0.85
2024-03-03T21:57:35.264Z,0.32
2024-03-03T22:00:01.917Z,1.67
2024-03-03T22:02:28.846Z,2.92
2024-03-03T22:04:55.605Z,1.10
2024-03-03T22:07:22.319Z,1.48
2024-03-03T22:09:48.979Z,4.03
2024-03-03T22:12:15.636Z,3.60
2024-03-03T22:14:42.336Z,4.45
2024-03-03T22:17:08.974Z,1.25
2024-03-03T22:19:35.668Z,4.68
2024-03-03T22:22:02.405Z,1.38
2024-03-03T22:24:29.399Z,1.75
2024-03-03T22:26:56.035Z,0.82
2024-03-03T22:29:22.709Z,1.10
2024-03-03T22:31:51.195Z,0.90
2024-03-03T22:34:17.889Z,0.50
2024-03-03T22:36:44.615Z,0.82
2024-03-03T22:39:11.244Z,1.58
2024-03-03T22:41:37.892Z,1.88
2024-03-03T22:44:04.950Z,1.70
2024-03-03T22:46:31.801Z,0.60
2024-03-03T22:48:58.813Z,1.52
2024-03-03T22:51:25.575Z,2.25
2024-03-03T22:53:52.373Z,0.85
2024-03-03T22:56:18.994Z,0.52
2024-03-03T22:58:45.638Z,0.47
2024-03-03T23:01:12.540Z,1.33
2024-03-03T23:03:40.058Z,0.80
2024-03-03T23:06:12.717Z,3.20
2024-03-03T23:08:39.570Z,0.47
2024-03-03T23:11:06.599Z,1.15
2024-03-03T23:13:33.468Z,0.40
2024-03-03T23:16:00.287Z,0.80
2024-03-03T23:18:26.925Z,0.40
2024-03-03T23:20:54.505Z,0.40
2024-03-03T23:23:21.130Z,2.35
2024-03-03T23:25:49.258Z,0.40
2024-03-03T23:28:16.225Z,1.67
2024-03-03T23:30:43.605Z,0.30
2024-03-03T23:33:10.306Z,0.52
2024-03-03T23:35:37.019Z,0.60
2024-03-03T23:38:04.015Z,2.35
2024-03-03T23:40:30.853Z,1.55
2024-03-03T23:42:57.745Z,0.85
2024-03-03T23:45:24.405Z,0.93
2024-03-03T23:47:51.030Z,0.40
2024-03-03T23:50:17.803Z,0.40
2024-03-03T23:52:44.426Z,0.50
2024-03-03T23:55:12.422Z,0.75
2024-03-03T23:57:39.519Z,0.60
